Time;durP1;ratioP1;P1;durP2;ratioP2;P2;SDS_P1;SDS_P2;PMS_P1;PMS_P2;Temp;Humidity;BMP_temperature;BMP_pressure;BME280_temperature;BME280_humidity;BME280_pressure;Samples;Min_cycle;Max_cycle;Signal;HPM_P1;HPM_P2
2021/08/25 00:02:11;;;;;;;916.67;817.00;;;;;;;;;;5028887;28;20431;-76
2021/08/25 00:04:38;;;;;;;909.05;809.80;;;;;;;;;;5045880;28;20072;-77
2021/08/25 00:07:07;;;;;;;908.22;809.10;;;;;;;;;;5046496;28;20045;-77
2021/08/25 00:09:33;;;;;;;907.65;808.47;;;;;;;;;;5045639;28;20025;-77
2021/08/25 00:11:59;;;;;;;911.70;812.28;;;;;;;;;;5046426;28;20037;-77
2021/08/25 00:14:25;;;;;;;913.30;813.45;;;;;;;;;;5045461;28;20115;-76
2021/08/25 00:16:51;;;;;;;912.10;812.42;;;;;;;;;;5046007;28;20120;-77
2021/08/25 00:19:16;;;;;;;904.92;805.75;;;;;;;;;;5046883;28;20051;-76
2021/08/25 00:21:42;;;;;;;905.80;806.58;;;;;;;;;;5047761;28;20087;-76
2021/08/25 00:24:08;;;;;;;907.75;808.08;;;;;;;;;;5043615;28;20029;-76
2021/08/25 00:26:34;;;;;;;908.90;809.50;;;;;;;;;;5047400;28;20047;-76
2021/08/25 00:29:00;;;;;;;900.95;801.70;;;;;;;;;;5045758;28;20044;-77
2021/08/25 00:31:26;;;;;;;900.30;801.17;;;;;;;;;;5030273;28;20080;-77
2021/08/25 00:33:52;;;;;;;892.58;792.05;;;;;;;;;;5036534;28;20029;-77
2021/08/25 00:36:18;;;;;;;895.40;796.17;;;;;;;;;;5046377;28;20049;-76
2021/08/25 00:38:44;;;;;;;891.50;790.35;;;;;;;;;;5025621;28;20066;-77
2021/08/25 00:41:10;;;;;;;900.65;801.35;;;;;;;;;;5045696;28;20021;-76
2021/08/25 00:43:36;;;;;;;896.63;797.25;;;;;;;;;;5049122;28;20078;-77
2021/08/25 00:46:02;;;;;;;897.50;798.15;;;;;;;;;;5045565;28;20053;-76
2021/08/25 00:48:28;;;;;;;899.28;800.20;;;;;;;;;;5037465;28;20053;-77
2021/08/25 00:50:54;;;;;;;900.28;801.00;;;;;;;;;;5045342;28;20044;-77
2021/08/25 00:53:22;;;;;;;896.80;797.60;;;;;;;;;;5050845;28;20686;-77
2021/08/25 00:55:48;;;;;;;897.38;798.42;;;;;;;;;;5044736;28;20029;-78
2021/08/25 00:58:14;;;;;;;902.47;803.05;;;;;;;;;;5049446;28;20029;-76
2021/08/25 01:01:02;;;;;;;896.30;797.15;;;;;;;;;;5045324;28;20274;-76
2021/08/25 01:03:30;;;;;;;902.38;799.95;;;;;;;;;;5048730;28;20347;-76
2021/08/25 01:05:57;;;;;;;907.78;806.53;;;;;;;;;;5049932;28;20043;-77
2021/08/25 01:08:24;;;;;;;899.63;799.75;;;;;;;;;;5049612;28;20029;-77
2021/08/25 01:10:51;;;;;;;901.78;801.72;;;;;;;;;;5048982;28;20044;-76
2021/08/25 01:13:18;;;;;;;906.25;806.38;;;;;;;;;;5049212;28;20512;-77
2021/08/25 01:15:44;;;;;;;904.45;804.63;;;;;;;;;;5048023;28;20060;-77
2021/08/25 01:18:12;;;;;;;895.85;794.92;;;;;;;;;;5048975;28;20033;-77
2021/08/25 01:20:39;;;;;;;904.33;802.97;;;;;;;;;;5047558;28;20028;-76
2021/08/25 01:23:05;;;;;;;898.85;798.47;;;;;;;;;;5049613;28;20044;-76
2021/08/25 01:25:32;;;;;;;900.97;800.78;;;;;;;;;;5048520;28;20120;-77
2021/08/25 01:28:05;;;;;;;898.55;797.97;;;;;;;;;;5047549;28;20033;-76
2021/08/25 01:30:33;;;;;;;899.65;795.20;;;;;;;;;;5047938;28;20024;-77
2021/08/25 01:32:59;;;;;;;899.75;794.83;;;;;;;;;;5047208;28;20073;-77
2021/08/25 01:35:51;;;;;;;902.17;794.45;;;;;;;;;;5046629;28;20453;-77
2021/08/25 01:38:23;;;;;;;903.65;794.00;;;;;;;;;;5029931;28;20486;-77
2021/08/25 01:40:50;;;;;;;896.28;781.70;;;;;;;;;;5049895;28;20124;-77
2021/08/25 01:43:16;;;;;;;898.17;789.15;;;;;;;;;;5049842;28;20052;-76
2021/08/25 01:45:42;;;;;;;907.97;806.83;;;;;;;;;;5048141;28;20414;-77
2021/08/25 01:48:08;;;;;;;896.83;792.08;;;;;;;;;;5042723;28;20564;-76
2021/08/25 01:50:34;;;;;;;899.30;793.50;;;;;;;;;;5047610;28;20640;-76
2021/08/25 01:53:00;;;;;;;899.55;797.83;;;;;;;;;;5048094;28;20029;-77
2021/08/25 01:55:26;;;;;;;896.88;784.30;;;;;;;;;;5047795;28;20463;-76
2021/08/25 01:57:52;;;;;;;896.38;784.40;;;;;;;;;;5048721;28;20496;-75
2021/08/25 02:00:18;;;;;;;902.20;793.47;;;;;;;;;;5047829;28;20568;-76
2021/08/25 02:02:44;;;;;;;892.78;784.72;;;;;;;;;;5045278;28;20021;-75
2021/08/25 02:05:10;;;;;;;898.58;787.30;;;;;;;;;;5047091;28;20029;-76
2021/08/25 02:07:36;;;;;;;893.83;782.25;;;;;;;;;;5043500;28;20438;-76
2021/08/25 02:10:02;;;;;;;895.17;785.28;;;;;;;;;;5031996;28;20032;-77
2021/08/25 02:12:28;;;;;;;898.60;790.13;;;;;;;;;;5048385;28;20025;-77
2021/08/25 02:14:54;;;;;;;897.17;782.33;;;;;;;;;;5048104;28;20594;-76
2021/08/25 02:17:20;;;;;;;894.28;782.67;;;;;;;;;;5047857;28;20053;-76
2021/08/25 02:19:46;;;;;;;894.13;780.65;;;;;;;;;;5048253;28;20028;-76
2021/08/25 02:22:12;;;;;;;900.42;788.03;;;;;;;;;;5047978;28;20021;-76
2021/08/25 02:24:38;;;;;;;898.83;782.83;;;;;;;;;;5049658;28;20036;-76
2021/08/25 02:27:04;;;;;;;895.45;780.00;;;;;;;;;;5047903;28;20455;-76
2021/08/25 02:29:30;;;;;;;900.33;783.97;;;;;;;;;;5047315;28;20052;-76
2021/08/25 02:31:56;;;;;;;901.50;780.38;;;;;;;;;;5046190;28;20366;-79
2021/08/25 02:34:22;;;;;;;892.50;768.33;;;;;;;;;;5047808;28;20025;-78
2021/08/25 02:36:48;;;;;;;896.97;780.78;;;;;;;;;;5046958;28;20081;-76
2021/08/25 02:39:14;;;;;;;897.97;788.25;;;;;;;;;;5048228;28;20033;-76
2021/08/25 02:41:40;;;;;;;893.50;772.15;;;;;;;;;;5047500;28;20355;-76
2021/08/25 02:44:06;;;;;;;905.63;790.35;;;;;;;;;;5044310;28;20033;-77
2021/08/25 02:46:32;;;;;;;898.80;774.67;;;;;;;;;;5047796;28;20418;-77
2021/08/25 02:48:58;;;;;;;897.80;779.17;;;;;;;;;;5047979;28;20059;-76
2021/08/25 02:51:24;;;;;;;901.53;781.70;;;;;;;;;;5046427;28;20029;-78
2021/08/25 02:53:50;;;;;;;901.25;783.95;;;;;;;;;;5038775;28;20090;-77
2021/08/25 02:56:16;;;;;;;898.72;769.58;;;;;;;;;;5045315;28;20072;-76
2021/08/25 02:58:42;;;;;;;897.95;771.28;;;;;;;;;;5031595;28;20040;-77
2021/08/25 03:01:08;;;;;;;896.67;771.33;;;;;;;;;;5035073;28;20024;-77
2021/08/25 03:03:34;;;;;;;896.45;772.88;;;;;;;;;;5047252;28;20059;-76
2021/08/25 03:05:59;;;;;;;898.55;780.88;;;;;;;;;;5046302;28;20033;-77
2021/08/25 03:08:25;;;;;;;896.42;766.58;;;;;;;;;;5044681;28;20056;-77
2021/08/25 03:10:51;;;;;;;898.10;774.97;;;;;;;;;;5047485;28;20025;-77
2021/08/25 03:13:17;;;;;;;902.33;779.75;;;;;;;;;;5045214;28;20079;-77
2021/08/25 03:15:43;;;;;;;897.42;776.28;;;;;;;;;;5047021;28;20029;-77
2021/08/25 03:18:09;;;;;;;900.60;768.85;;;;;;;;;;5030578;28;20032;-77
2021/08/25 03:20:35;;;;;;;901.50;778.80;;;;;;;;;;5047247;28;20025;-76
2021/08/25 03:23:01;;;;;;;905.17;781.08;;;;;;;;;;5046835;28;20021;-76
2021/08/25 03:25:27;;;;;;;902.58;771.70;;;;;;;;;;5041475;28;20020;-77
2021/08/25 03:27:53;;;;;;;901.58;769.40;;;;;;;;;;5026377;28;20040;-77
2021/08/25 03:30:19;;;;;;;896.50;762.35;;;;;;;;;;5038214;28;20025;-78
2021/08/25 03:32:45;;;;;;;899.35;764.55;;;;;;;;;;5045563;28;20495;-77
2021/08/25 03:35:11;;;;;;;901.33;773.83;;;;;;;;;;5046617;28;20112;-76
2021/08/25 03:37:38;;;;;;;897.15;764.92;;;;;;;;;;5045071;28;20040;-77
2021/08/25 03:40:05;;;;;;;900.17;758.72;;;;;;;;;;5046936;28;20076;-76
2021/08/25 03:42:31;;;;;;;914.40;783.53;;;;;;;;;;5045674;28;20025;-77
2021/08/25 03:44:57;;;;;;;916.55;783.00;;;;;;;;;;5047274;28;20112;-76
2021/08/25 03:47:23;;;;;;;918.58;788.75;;;;;;;;;;5046292;28;20552;-76
2021/08/25 03:49:49;;;;;;;918.75;783.60;;;;;;;;;;5048235;28;20596;-76
2021/08/25 03:52:15;;;;;;;918.00;780.17;;;;;;;;;;5045566;28;20029;-77
2021/08/25 03:54:41;;;;;;;914.47;775.65;;;;;;;;;;5048137;28;20104;-77
2021/08/25 03:57:07;;;;;;;919.45;779.47;;;;;;;;;;5043316;28;20025;-77
2021/08/25 03:59:33;;;;;;;915.20;774.83;;;;;;;;;;5010842;28;20037;-76
2021/08/25 04:01:59;;;;;;;915.33;770.78;;;;;;;;;;5010676;28;20053;-77
2021/08/25 04:04:25;;;;;;;909.17;766.53;;;;;;;;;;5029443;28;20566;-77
2021/08/25 04:06:50;;;;;;;914.67;773.58;;;;;;;;;;5047041;28;20044;-76
2021/08/25 04:09:16;;;;;;;915.90;774.40;;;;;;;;;;5046331;28;20095;-77
2021/08/25 04:11:42;;;;;;;915.85;771.55;;;;;;;;;;5046081;28;20036;-77
2021/08/25 04:14:08;;;;;;;910.80;767.35;;;;;;;;;;5029654;28;20018;-76
2021/08/25 04:16:34;;;;;;;911.40;768.10;;;;;;;;;;5033910;28;20029;-77
2021/08/25 04:19:00;;;;;;;907.50;760.75;;;;;;;;;;5029118;28;20071;-77
2021/08/25 04:21:26;;;;;;;909.60;770.10;;;;;;;;;;5043269;28;20100;-77
2021/08/25 04:23:52;;;;;;;905.40;763.00;;;;;;;;;;5049372;28;20059;-77
2021/08/25 04:26:18;;;;;;;910.75;768.90;;;;;;;;;;5049274;28;20028;-77
2021/08/25 04:28:44;;;;;;;907.50;767.55;;;;;;;;;;5047768;28;20123;-77
2021/08/25 04:31:10;;;;;;;906.95;765.30;;;;;;;;;;5050068;28;20120;-76
2021/08/25 04:33:37;;;;;;;908.28;759.30;;;;;;;;;;5045314;28;20033;-76
2021/08/25 04:36:03;;;;;;;904.30;768.40;;;;;;;;;;5032673;28;20091;-77
2021/08/25 04:38:29;;;;;;;907.72;763.35;;;;;;;;;;5048691;28;20064;-77
2021/08/25 04:40:57;;;;;;;904.92;757.35;;;;;;;;;;5049390;28;20057;-76
2021/08/25 04:43:23;;;;;;;904.53;758.13;;;;;;;;;;5043166;28;20017;-77
2021/08/25 04:45:49;;;;;;;907.10;769.67;;;;;;;;;;5047626;28;20354;-77
2021/08/25 04:48:15;;;;;;;908.47;764.25;;;;;;;;;;5035861;28;20037;-77
2021/08/25 04:50:42;;;;;;;901.08;753.03;;;;;;;;;;5046072;28;20021;-77
2021/08/25 04:53:08;;;;;;;903.83;758.20;;;;;;;;;;5049611;28;20025;-76
2021/08/25 04:55:37;;;;;;;900.72;758.70;;;;;;;;;;5049967;28;20029;-76
2021/08/25 04:58:06;;;;;;;899.17;752.83;;;;;;;;;;5045858;28;20031;-77
2021/08/25 05:00:32;;;;;;;896.80;747.92;;;;;;;;;;5030029;28;20112;-77
2021/08/25 05:02:58;;;;;;;906.03;762.00;;;;;;;;;;5038440;28;20115;-77
2021/08/25 05:05:24;;;;;;;903.60;764.75;;;;;;;;;;5050153;28;20017;-77
2021/08/25 05:07:50;;;;;;;902.90;761.95;;;;;;;;;;5048134;28;20039;-77
2021/08/25 05:10:17;;;;;;;899.35;754.85;;;;;;;;;;5049128;28;20024;-76
2021/08/25 05:12:43;;;;;;;902.17;757.53;;;;;;;;;;5048306;28;20036;-77
2021/08/25 05:15:10;;;;;;;897.05;751.60;;;;;;;;;;5045379;28;20504;-77
2021/08/25 05:17:36;;;;;;;899.67;749.80;;;;;;;;;;5049455;28;20114;-76
2021/08/25 05:20:06;;;;;;;899.15;754.60;;;;;;;;;;5049272;28;20064;-76
2021/08/25 05:22:33;;;;;;;905.85;758.17;;;;;;;;;;5047612;28;20036;-76
2021/08/25 05:24:58;;;;;;;896.15;742.72;;;;;;;;;;5048573;28;20643;-76
2021/08/25 05:27:25;;;;;;;900.58;750.13;;;;;;;;;;5046523;28;20044;-76
2021/08/25 05:29:51;;;;;;;898.08;742.40;;;;;;;;;;5048600;28;20025;-77
2021/08/25 05:32:17;;;;;;;898.70;740.42;;;;;;;;;;5047853;28;20024;-77
2021/08/25 05:34:43;;;;;;;900.05;746.05;;;;;;;;;;5048889;28;20033;-77
2021/08/25 05:37:09;;;;;;;900.92;746.85;;;;;;;;;;5043571;28;20124;-77
2021/08/25 05:39:35;;;;;;;900.80;747.78;;;;;;;;;;5047340;28;20547;-77
2021/08/25 05:42:01;;;;;;;909.78;759.55;;;;;;;;;;5034517;28;20051;-77
2021/08/25 05:44:27;;;;;;;905.83;759.60;;;;;;;;;;5031998;28;20443;-77
2021/08/25 05:46:53;;;;;;;911.55;767.10;;;;;;;;;;5025102;28;20686;-77
2021/08/25 05:49:19;;;;;;;905.42;761.60;;;;;;;;;;5030848;28;20122;-77
2021/08/25 05:51:45;;;;;;;912.63;780.25;;;;;;;;;;5047589;28;20026;-78
2021/08/25 05:54:13;;;;;;;910.53;774.22;;;;;;;;;;5029219;28;20053;-77
2021/08/25 05:56:39;;;;;;;909.40;771.08;;;;;;;;;;5028892;28;20031;-78
2021/08/25 05:59:05;;;;;;;906.70;774.85;;;;;;;;;;5046101;28;20363;-77
2021/08/25 06:01:31;;;;;;;918.08;789.58;;;;;;;;;;5047514;28;20107;-77
2021/08/25 06:03:57;;;;;;;908.78;784.92;;;;;;;;;;5030652;28;20441;-77
2021/08/25 06:06:29;;;;;;;910.00;782.72;;;;;;;;;;5047594;28;20069;-77
2021/08/25 06:08:55;;;;;;;912.53;785.00;;;;;;;;;;5046542;28;20587;-77
2021/08/25 06:11:21;;;;;;;909.33;791.65;;;;;;;;;;5045511;28;20026;-78
2021/08/25 06:13:47;;;;;;;911.70;795.22;;;;;;;;;;5044390;28;20032;-77
2021/08/25 06:16:13;;;;;;;911.90;796.33;;;;;;;;;;5049215;28;20028;-77
2021/08/25 06:18:39;;;;;;;909.70;797.75;;;;;;;;;;5031403;28;20040;-77
2021/08/25 06:21:05;;;;;;;911.20;796.05;;;;;;;;;;5030825;28;20032;-77
2021/08/25 06:23:31;;;;;;;914.35;803.67;;;;;;;;;;5041647;28;20029;-76
2021/08/25 06:25:57;;;;;;;912.60;801.17;;;;;;;;;;5030791;28;20407;-76
2021/08/25 06:28:23;;;;;;;925.88;823.60;;;;;;;;;;5036615;28;20037;-76
2021/08/25 06:30:49;;;;;;;912.63;803.83;;;;;;;;;;5036091;28;20032;-75
2021/08/25 06:33:15;;;;;;;917.22;814.58;;;;;;;;;;5041517;28;20463;-76
2021/08/25 06:42:15;;;;;;;902.15;785.25;;;;;;;;;;5039923;28;20049;-76
2021/08/25 06:44:41;;;;;;;906.85;805.85;;;;;;;;;;5000321;28;20046;-75
2021/08/25 06:47:07;;;;;;;914.00;813.25;;;;;;;;;;4996890;28;20393;-75
2021/08/25 06:49:33;;;;;;;916.65;816.13;;;;;;;;;;4983344;28;20107;-77
2021/08/25 06:51:59;;;;;;;926.95;825.88;;;;;;;;;;5017813;28;20482;-75
2021/08/25 06:54:25;;;;;;;932.80;831.70;;;;;;;;;;5011716;28;20104;-75
2021/08/25 06:56:51;;;;;;;939.50;837.85;;;;;;;;;;4994256;28;20172;-75
2021/08/25 06:59:17;;;;;;;932.70;832.10;;;;;;;;;;4991021;28;20042;-75
2021/08/25 07:01:43;;;;;;;951.42;849.42;;;;;;;;;;4981707;28;20485;-75
2021/08/25 07:04:09;;;;;;;952.95;851.78;;;;;;;;;;4994589;28;20064;-75
2021/08/25 07:06:35;;;;;;;966.28;864.03;;;;;;;;;;5012052;28;20042;-75
2021/08/25 07:09:01;;;;;;;971.55;869.45;;;;;;;;;;4990921;28;20034;-75
2021/08/25 07:11:27;;;;;;;953.17;851.97;;;;;;;;;;5006873;28;20045;-75
2021/08/25 07:13:53;;;;;;;953.30;852.10;;;;;;;;;;5025640;28;20046;-76
2021/08/25 07:16:19;;;;;;;966.20;864.15;;;;;;;;;;4991527;28;20034;-75
2021/08/25 07:18:45;;;;;;;985.00;882.45;;;;;;;;;;4977200;28;20700;-76
2021/08/25 07:21:11;;;;;;;979.65;877.40;;;;;;;;;;5001086;28;20065;-76
2021/08/25 07:23:38;;;;;;;984.78;882.38;;;;;;;;;;4993641;28;20022;-76
2021/08/25 07:26:04;;;;;;;998.30;895.45;;;;;;;;;;5011861;28;20569;-76
2021/08/25 07:28:30;;;;;;;1009.30;906.10;;;;;;;;;;4989603;28;20143;-78
2021/08/25 07:30:56;;;;;;;1009.90;906.53;;;;;;;;;;4993980;28;20109;-76
2021/08/25 07:33:22;;;;;;;1022.88;919.03;;;;;;;;;;4994365;28;20042;-76
2021/08/25 07:35:49;;;;;;;1028.63;924.22;;;;;;;;;;5007975;28;20080;-76
2021/08/25 07:38:18;;;;;;;1019.15;915.67;;;;;;;;;;4993121;28;20120;-76
2021/08/25 07:40:45;;;;;;;1033.80;929.42;;;;;;;;;;4989418;28;20049;-76
2021/08/25 07:43:10;;;;;;;1046.30;941.25;;;;;;;;;;5005305;28;20494;-76
2021/08/25 07:45:37;;;;;;;1049.20;944.30;;;;;;;;;;4994214;28;20014;-77
2021/08/25 07:48:03;;;;;;;1052.05;947.20;;;;;;;;;;5004458;28;20039;-77
2021/08/25 07:50:30;;;;;;;1052.20;947.30;;;;;;;;;;5008350;28;20103;-76
2021/08/25 07:52:56;;;;;;;1063.55;958.28;;;;;;;;;;4996763;28;20042;-76
2021/08/25 07:55:22;;;;;;;1062.90;957.65;;;;;;;;;;4998066;28;20029;-76
2021/08/25 07:57:48;;;;;;;1071.35;965.70;;;;;;;;;;5015759;28;20501;-76
2021/08/25 08:00:14;;;;;;;1082.32;975.83;;;;;;;;;;4997306;28;20051;-77
2021/08/25 08:02:40;;;;;;;1074.00;968.03;;;;;;;;;;4997973;28;20037;-76
2021/08/25 08:05:06;;;;;;;1078.00;972.17;;;;;;;;;;4997733;28;20052;-78
2021/08/25 08:07:32;;;;;;;1081.25;975.47;;;;;;;;;;5001712;28;20137;-75
2021/08/25 08:09:58;;;;;;;1088.22;982.00;;;;;;;;;;4993298;28;20109;-77
2021/08/25 08:12:24;;;;;;;1087.97;981.55;;;;;;;;;;5013080;28;20702;-75
2021/08/25 08:14:50;;;;;;;1088.85;982.53;;;;;;;;;;4995166;28;20030;-78
2021/08/25 08:17:22;;;;;;;1093.25;986.60;;;;;;;;;;4992155;28;20075;-75
2021/08/25 08:19:48;;;;;;;1098.72;991.53;;;;;;;;;;4988623;28;20030;-78
2021/08/25 08:22:14;;;;;;;1100.93;993.60;;;;;;;;;;4979667;28;20704;-78
2021/08/25 08:24:40;;;;;;;1091.85;984.97;;;;;;;;;;4987690;28;20241;-78
2021/08/25 08:27:07;;;;;;;1092.82;986.40;;;;;;;;;;4988543;28;20545;-77
2021/08/25 08:29:34;;;;;;;1108.38;998.45;;;;;;;;;;5006601;28;20425;-79
2021/08/25 08:32:01;;;;;;;1110.38;999.40;;;;;;;;;;4989923;28;20037;-77
2021/08/25 08:34:27;;;;;;;1095.65;989.38;;;;;;;;;;4990094;28;20104;-77
2021/08/25 08:36:53;;;;;;;1100.68;993.92;;;;;;;;;;5008158;28;20037;-78
2021/08/25 08:39:19;;;;;;;1102.57;995.63;;;;;;;;;;4989002;28;20032;-77
2021/08/25 08:41:45;;;;;;;1122.90;999.90;;;;;;;;;;4988700;28;20490;-80
2021/08/25 08:44:12;;;;;;;1125.10;999.90;;;;;;;;;;4991171;28;20103;-77
2021/08/25 08:46:42;;;;;;;1113.90;999.90;;;;;;;;;;4983720;28;20026;-78
2021/08/25 08:49:10;;;;;;;1128.97;999.90;;;;;;;;;;5003823;28;20473;-78
2021/08/25 08:51:38;;;;;;;1119.72;999.90;;;;;;;;;;4990919;28;20030;-75
2021/08/25 08:54:04;;;;;;;1107.22;997.83;;;;;;;;;;5021358;28;20092;-77
2021/08/25 08:56:30;;;;;;;1115.40;999.90;;;;;;;;;;5005148;28;20041;-75
2021/08/25 08:58:58;;;;;;;1105.50;996.88;;;;;;;;;;5005687;28;20677;-77
2021/08/25 09:01:24;;;;;;;1108.95;998.83;;;;;;;;;;4999862;28;20036;-78
2021/08/25 09:03:50;;;;;;;1105.10;996.95;;;;;;;;;;4998467;28;20042;-77
2021/08/25 09:06:16;;;;;;;1113.07;999.40;;;;;;;;;;4997092;28;20075;-75
2021/08/25 09:08:42;;;;;;;1110.00;999.10;;;;;;;;;;4996733;28;20629;-78
2021/08/25 09:11:08;;;;;;;1105.32;997.03;;;;;;;;;;5013694;28;20621;-81
2021/08/25 09:13:52;;;;;;;1112.85;999.67;;;;;;;;;;5012200;28;20567;-77
2021/08/25 09:16:31;;;;;;;1115.57;999.90;;;;;;;;;;4995855;28;20429;-77
2021/08/25 09:19:06;;;;;;;1120.57;999.90;;;;;;;;;;4994160;28;20682;-79
2021/08/25 09:21:33;;;;;;;1122.97;999.90;;;;;;;;;;5011949;28;20029;-78
2021/08/25 09:23:59;;;;;;;1113.68;999.90;;;;;;;;;;5012309;28;20053;-74
2021/08/25 09:26:25;;;;;;;1124.65;999.90;;;;;;;;;;4993416;28;20364;-76
2021/08/25 09:28:52;;;;;;;1136.55;999.90;;;;;;;;;;4992878;28;20049;-77
2021/08/25 09:31:18;;;;;;;1132.30;999.90;;;;;;;;;;5001786;28;20021;-84
2021/08/25 09:33:45;;;;;;;1129.60;999.90;;;;;;;;;;4996548;28;20042;-82
2021/08/25 09:36:16;;;;;;;1161.18;999.90;;;;;;;;;;4994162;28;20057;-81
2021/08/25 09:38:53;;;;;;;1163.10;999.90;;;;;;;;;;4992785;28;20125;-81
2021/08/25 09:41:19;;;;;;;1173.68;999.90;;;;;;;;;;5008852;28;20041;-82
2021/08/25 09:43:49;;;;;;;1183.35;999.90;;;;;;;;;;5012224;28;20042;-80
2021/08/25 09:46:19;;;;;;;1183.68;999.90;;;;;;;;;;5029317;28;20026;-80
2021/08/25 09:48:52;;;;;;;1188.15;999.90;;;;;;;;;;5021913;28;20041;-83
2021/08/25 09:51:20;;;;;;;1192.70;999.90;;;;;;;;;;4994686;28;20026;-79
2021/08/25 09:53:47;;;;;;;1201.45;999.90;;;;;;;;;;5011401;28;20046;-80
2021/08/25 09:56:22;;;;;;;1207.32;999.90;;;;;;;;;;4995638;28;20717;-83
2021/08/25 10:01:53;;;;;;;1214.32;999.90;;;;;;;;;;5020426;28;20091;-82
2021/08/25 10:04:19;;;;;;;1221.22;999.90;;;;;;;;;;5015658;28;20358;-78
2021/08/25 10:06:51;;;;;;;1231.47;999.90;;;;;;;;;;5006344;28;20721;-79
2021/08/25 10:09:18;;;;;;;1249.22;999.90;;;;;;;;;;4992857;28;20054;-81
2021/08/25 10:11:45;;;;;;;1259.10;999.90;;;;;;;;;;4993808;28;20026;-81
2021/08/25 10:14:13;;;;;;;1277.53;999.90;;;;;;;;;;4995123;28;20449;-79
2021/08/25 10:16:39;;;;;;;1278.63;999.90;;;;;;;;;;4995807;28;20033;-81
2021/08/25 10:19:24;;;;;;;1283.05;999.90;;;;;;;;;;4996668;28;20056;-81
2021/08/25 10:21:51;;;;;;;1276.55;999.90;;;;;;;;;;5008036;28;20133;-83
2021/08/25 10:24:18;;;;;;;1279.43;999.90;;;;;;;;;;5009786;28;20050;-80
2021/08/25 10:27:06;;;;;;;1283.68;999.90;;;;;;;;;;5009008;28;20113;-82
2021/08/25 10:29:32;;;;;;;1282.68;999.90;;;;;;;;;;5006070;28;20080;-82
2021/08/25 10:31:59;;;;;;;1294.15;999.90;;;;;;;;;;4987126;28;20125;-84
2021/08/25 10:34:28;;;;;;;1301.32;999.90;;;;;;;;;;4992474;28;20054;-86
2021/08/25 10:37:20;;;;;;;1328.30;999.90;;;;;;;;;;4995670;28;20060;-80
2021/08/25 10:39:50;;;;;;;1331.60;999.90;;;;;;;;;;4994811;28;20068;-83
2021/08/25 10:42:16;;;;;;;1335.25;999.90;;;;;;;;;;5011814;28;20041;-83
2021/08/25 10:44:46;;;;;;;1337.57;999.90;;;;;;;;;;4994234;28;20436;-83
2021/08/25 10:47:11;;;;;;;;;;;;;;;;;;5001537;28;20033;-80
2021/08/25 10:49:41;;;;;;;1319.80;999.90;;;;;;;;;;4989545;28;20389;-80
2021/08/25 10:52:07;;;;;;;1319.20;999.90;;;;;;;;;;4995656;28;20071;-82
2021/08/25 10:54:34;;;;;;;1319.90;999.90;;;;;;;;;;4982308;28;20951;-81
2021/08/25 10:57:13;;;;;;;1314.60;999.90;;;;;;;;;;4994993;28;20026;-79
2021/08/25 11:00:07;;;;;;;1294.38;999.90;;;;;;;;;;5027814;28;20766;-83
2021/08/25 11:02:39;;;;;;;1288.35;999.90;;;;;;;;;;4994255;28;20060;-84
2021/08/25 11:05:12;;;;;;;1286.63;999.90;;;;;;;;;;4994988;28;20092;-84
2021/08/25 11:07:42;;;;;;;1290.60;999.90;;;;;;;;;;4994674;28;20074;-78
2021/08/25 11:10:27;;;;;;;1288.90;999.90;;;;;;;;;;4987615;28;20430;-80
2021/08/25 11:13:02;;;;;;;1295.82;999.90;;;;;;;;;;4991255;28;20483;-84
2021/08/25 11:15:41;;;;;;;1299.13;999.90;;;;;;;;;;5006890;28;20046;-82
2021/08/25 11:18:07;;;;;;;1300.15;999.90;;;;;;;;;;4991411;28;20043;-84
2021/08/25 11:20:33;;;;;;;1294.88;999.90;;;;;;;;;;5006590;28;20034;-89
2021/08/25 11:23:00;;;;;;;1294.85;999.90;;;;;;;;;;4992805;28;20038;-84
2021/08/25 11:25:26;;;;;;;1304.53;999.90;;;;;;;;;;4993763;28;20022;-84
2021/08/25 11:27:52;;;;;;;1308.10;999.90;;;;;;;;;;4993597;28;20100;-83
2021/08/25 11:30:24;;;;;;;1319.45;999.90;;;;;;;;;;5007537;28;20077;-81
2021/08/25 11:32:52;;;;;;;1323.28;999.90;;;;;;;;;;4987265;28;20042;-84
2021/08/25 11:35:23;;;;;;;1326.35;999.90;;;;;;;;;;5002472;28;20030;-81
2021/08/25 11:37:49;;;;;;;1331.47;999.90;;;;;;;;;;4989743;28;20112;-83
2021/08/25 11:40:15;;;;;;;1332.93;999.90;;;;;;;;;;4993627;28;20026;-82
2021/08/25 11:42:42;;;;;;;1339.20;999.90;;;;;;;;;;4994086;28;20048;-85
2021/08/25 11:45:16;;;;;;;1342.43;999.90;;;;;;;;;;4994876;28;20026;-83
2021/08/25 11:47:52;;;;;;;1351.20;999.90;;;;;;;;;;4998201;28;20038;-84
2021/08/25 11:50:19;;;;;;;1354.50;999.90;;;;;;;;;;4993295;28;20068;-83
2021/08/25 11:52:45;;;;;;;1350.30;999.90;;;;;;;;;;5004386;28;20034;-81
2021/08/25 11:55:12;;;;;;;1337.78;999.90;;;;;;;;;;5004258;28;20116;-85
2021/08/25 11:57:42;;;;;;;1340.50;999.90;;;;;;;;;;5005366;28;20047;-80
2021/08/25 12:00:09;;;;;;;1345.80;999.90;;;;;;;;;;5007692;28;20148;-85
2021/08/25 12:02:51;;;;;;;1352.05;999.90;;;;;;;;;;5007473;28;20133;-80
2021/08/25 12:05:28;;;;;;;1362.03;999.90;;;;;;;;;;5006907;28;20574;-81
2021/08/25 12:08:11;;;;;;;1374.00;999.90;;;;;;;;;;4997901;28;20054;-82
2021/08/25 12:10:41;;;;;;;1381.82;999.90;;;;;;;;;;4986963;28;20034;-80
2021/08/25 12:13:08;;;;;;;1394.13;999.90;;;;;;;;;;4996789;28;20038;-81
2021/08/25 12:16:04;;;;;;;1398.32;999.90;;;;;;;;;;4999749;28;20026;-84
2021/08/25 12:18:30;;;;;;;1407.15;999.90;;;;;;;;;;4980935;28;20053;-85
2021/08/25 12:20:58;;;;;;;1400.70;999.90;;;;;;;;;;5020239;28;20521;-82
2021/08/25 12:23:25;;;;;;;1392.22;999.90;;;;;;;;;;5018286;28;20052;-80
2021/08/25 12:25:53;;;;;;;1385.13;999.90;;;;;;;;;;4996167;28;20061;-81
2021/08/25 12:28:35;;;;;;;1391.13;999.90;;;;;;;;;;5010427;28;20038;-80
2021/08/25 12:31:11;;;;;;;1387.00;999.90;;;;;;;;;;5011868;28;20064;-84
2021/08/25 12:33:37;;;;;;;1384.78;999.90;;;;;;;;;;4991345;28;20525;-78
2021/08/25 12:36:19;;;;;;;1384.88;999.90;;;;;;;;;;5022204;28;20505;-82
2021/08/25 12:38:45;;;;;;;1374.43;999.90;;;;;;;;;;5004768;28;20050;-80
2021/08/25 12:41:11;;;;;;;1364.05;999.90;;;;;;;;;;5014253;28;20045;-80
2021/08/25 12:43:37;;;;;;;1354.95;999.90;;;;;;;;;;4997559;28;20042;-79
2021/08/25 12:46:03;;;;;;;1356.22;999.90;;;;;;;;;;4997592;28;20841;-82
2021/08/25 12:48:29;;;;;;;1343.47;999.90;;;;;;;;;;5013138;28;20330;-85
2021/08/25 12:50:55;;;;;;;1337.88;999.90;;;;;;;;;;4996923;28;20104;-86
2021/08/25 12:53:21;;;;;;;1327.18;999.90;;;;;;;;;;4998104;28;20042;-79
2021/08/25 12:55:48;;;;;;;1320.13;999.90;;;;;;;;;;4994943;28;20022;-82
2021/08/25 12:58:14;;;;;;;1319.70;999.90;;;;;;;;;;4999314;28;20076;-83
2021/08/25 13:00:40;;;;;;;1310.82;999.90;;;;;;;;;;4996241;28;20097;-79
2021/08/25 13:03:06;;;;;;;1298.22;999.90;;;;;;;;;;4998863;28;20048;-84
2021/08/25 13:05:33;;;;;;;1295.60;999.90;;;;;;;;;;5003847;28;20034;-87
2021/08/25 13:07:58;;;;;;;1288.50;999.90;;;;;;;;;;5032199;28;20040;-83
2021/08/25 13:10:25;;;;;;;1287.15;999.90;;;;;;;;;;5012849;28;20034;-86
2021/08/25 13:12:50;;;;;;;1287.05;999.90;;;;;;;;;;5002998;28;20040;-84
2021/08/25 13:15:16;;;;;;;1289.18;999.90;;;;;;;;;;4996036;28;20029;-82
2021/08/25 13:17:42;;;;;;;1286.13;999.90;;;;;;;;;;4995769;28;20081;-83
2021/08/25 13:20:09;;;;;;;1283.50;999.90;;;;;;;;;;4997152;28;20026;-86
2021/08/25 13:22:38;;;;;;;1282.07;999.90;;;;;;;;;;5000170;28;20096;-88
2021/08/25 13:25:04;;;;;;;1277.13;999.90;;;;;;;;;;5014273;28;20029;-85
2021/08/25 13:27:30;;;;;;;1278.90;999.90;;;;;;;;;;4987737;28;20033;-83
2021/08/25 13:29:56;;;;;;;1272.25;999.90;;;;;;;;;;5004636;28;20034;-84
2021/08/25 13:32:22;;;;;;;1277.10;999.90;;;;;;;;;;5006312;28;20091;-87
2021/08/25 13:34:48;;;;;;;1280.47;999.90;;;;;;;;;;4990141;28;20044;-79
2021/08/25 13:37:14;;;;;;;1303.35;999.90;;;;;;;;;;4989146;28;20073;-86
2021/08/25 13:39:40;;;;;;;1322.93;999.90;;;;;;;;;;5010040;28;20045;-84
2021/08/25 13:42:07;;;;;;;1318.72;999.90;;;;;;;;;;5003765;28;20402;-85
2021/08/25 13:44:33;;;;;;;1316.70;999.90;;;;;;;;;;5020708;28;20413;-84
2021/08/25 13:46:59;;;;;;;1297.28;999.90;;;;;;;;;;5015758;28;20029;-85
2021/08/25 13:49:25;;;;;;;1304.40;999.90;;;;;;;;;;5011360;28;20480;-85
2021/08/25 13:51:51;;;;;;;1294.85;999.90;;;;;;;;;;4987894;28;20302;-85
2021/08/25 13:54:18;;;;;;;1301.90;999.90;;;;;;;;;;5020723;28;20552;-81
2021/08/25 13:56:44;;;;;;;1316.57;999.90;;;;;;;;;;4996695;28;20728;-81
2021/08/25 13:59:10;;;;;;;1336.25;999.90;;;;;;;;;;4990432;28;20046;-84